OOCL California — VRWC8 — position and weather

sailwx.info

Track history (hours):
 
Tides and Currents Weather Stations Pressure Air Temp Water Temp Dewpoint Dewpoint Depression Visibility Wind Speed Wind Dir Waves Ship Positions

OOCL California

Last reported at 2016-Jun-08 12:29 UTC. Time now 2016-Jun-27 00:35 UTC.
Position N 01°59' E 102°14'.
Warning: this ship's position is 18 days out of date.

Length 276 m; beam 40 m; draft 14 m.

Type: Ship. MMSI: 477704000.

Date/timePositionNaut miles runAvg speedWind from/ knotsBaromVisibWave heightAir tempDewpointWater temp
2016-Jun-08 12:29N 01°59' E 102°14'1819.4
2016-Jun-08 11:33N 01°50' E 102°30'2020.4
2016-Jun-08 10:33N 01°41' E 102°48'6019.5
2016-Jun-08 07:28N 01°11' E 103°40'1313.9
2016-Jun-08 06:33N 01°13' E 103°52'3 2.6
2016-Jun-08 05:16N 01°16' E 103°51'0 0.0
2016-Jun-08 04:28N 01°16' E 103°51'0 0.0
2016-Jun-08 03:25N 01°16' E 103°51'0 0.0
2016-Jun-08 02:25N 01°16' E 103°51'0 0.0
2016-Jun-08 01:28N 01°16' E 103°51'0 0.0
2016-Jun-08 00:28N 01°16' E 103°51'0 0.0
2016-Jun-07 23:31N 01°16' E 103°51'0 0.0
2016-Jun-07 22:28N 01°16' E 103°51'0 0.0
2016-Jun-07 21:28N 01°16' E 103°51'0 0.0
2016-Jun-07 20:31N 01°16' E 103°51'0 0.0
2016-Jun-07 19:28N 01°16' E 103°51'0 0.0
2016-Jun-07 18:28N 01°16' E 103°51'1 0.8
2016-Jun-07 17:33N 01°15' E 103°51'5 5.3
2016-Jun-07 16:33N 01°15' E 103°46'2 1.7
2016-Jun-07 15:33N 01°17' E 103°46'0 0.0
2016-Jun-07 14:33N 01°17' E 103°46'0 0.0
2016-Jun-07 13:33N 01°17' E 103°46'0 0.0
2016-Jun-07 12:33N 01°17' E 103°46'0 0.1
2016-Jun-07 11:33N 01°17' E 103°46'0 0.1
2016-Jun-07 10:33N 01°17' E 103°46'0 0.0
2016-Jun-07 09:33N 01°17' E 103°46'0 0.0
2016-Jun-07 08:33N 01°17' E 103°46'0 0.0
2016-Jun-07 07:33N 01°17' E 103°46'0 0.0
2016-Jun-07 06:33N 01°17' E 103°46'0 0.0
2016-Jun-07 05:30N 01°17' E 103°46'0 0.1
2016-Jun-07 04:33N 01°17' E 103°46'0 0.1
2016-Jun-07 03:33N 01°17' E 103°46'0 0.0
2016-Jun-07 02:21N 01°17' E 103°46'0 0.0
2016-Jun-07 01:27N 01°17' E 103°46'0 0.0
2016-Jun-07 00:33N 01°17' E 103°46'0 0.0
2016-Jun-06 23:34N 01°17' E 103°46'1 0.8
2016-Jun-06 22:33N 01°16' E 103°45'9 8.6
2016-Jun-06 21:33N 01°14' E 103°54'8 8.4
2016-Jun-06 20:34N 01°16' E 104°02'1211.4
2016-Jun-06 19:33N 01°17' E 104°13'  
2016-Jun-03 18:33N 21°25' E 114°06'1918.7
2016-Jun-03 17:33N 21°42' E 114°14'2418.7
2016-Jun-03 16:16N 22°06' E 114°20'2212.7
2016-Jun-03 14:33N 22°22' E 114°04'1010.2
2016-Jun-03 13:33N 22°24' E 113°53'3 3.1
2016-Jun-03 12:33N 22°27' E 113°54'0 0.1
2016-Jun-03 11:04N 22°27' E 113°54'0 0.1
2016-Jun-03 10:28N 22°27' E 113°54'0 0.1
2016-Jun-03 09:28N 22°27' E 113°54'0 0.0
2016-Jun-03 05:28N 22°27' E 113°54'0 0.0
2016-Jun-03 04:22N 22°27' E 113°54'0 0.0
2016-Jun-03 03:28N 22°27' E 113°54'0 0.0
2016-Jun-03 02:28N 22°27' E 113°54'0 0.0
2016-Jun-03 01:10N 22°27' E 113°54'0 0.0
2016-Jun-03 00:22N 22°27' E 113°54'0 0.2
2016-Jun-02 23:33N 22°27' E 113°54'10 6.9
2016-Jun-02 22:07N 22°21' E 114°02'610.6
2016-Jun-02 21:33N 22°17' E 114°06'10 9.5
2016-Jun-02 20:33N 22°10' E 114°13'1212.0
2016-Jun-02 19:33N 22°08' E 114°26'30316.7
2016-Jun-02 01:29N 24°34' E 119°14'34919.2
2016-Jun-01 07:18N 29°38' E 122°28'1215.7
2016-Jun-01 06:32N 29°46' E 122°18'9 9.6
2016-Jun-01 05:34N 29°49' E 122°08'7 6.9
2016-Jun-01 04:31N 29°46' E 122°00'0 0.0
2016-Jun-01 00:29N 29°46' E 122°00'0 0.0
2016-May-31 23:26N 29°46' E 122°00'0 0.0
2016-May-31 21:20N 29°46' E 122°00'0 0.0
2016-May-31 20:06N 29°46' E 122°00'0 0.1
2016-May-31 19:30N 29°46' E 122°00'0 0.1
2016-May-31 18:33N 29°46' E 122°00'0 0.0
2016-May-31 17:32N 29°46' E 122°00'0 0.0
2016-May-31 16:27N 29°46' E 122°00'0 0.0
2016-May-31 15:33N 29°46' E 122°00'0 0.0
2016-May-31 14:33N 29°46' E 122°00'0 0.0
2016-May-31 13:32N 29°46' E 122°00'0 0.0
2016-May-31 12:33N 29°46' E 122°00'0 0.1
2016-May-31 11:32N 29°46' E 122°00'0 0.0
2016-May-31 10:32N 29°46' E 122°00'0 0.0
2016-May-31 09:33N 29°46' E 122°00'0 0.0
2016-May-31 08:33N 29°46' E 122°00'0 0.0
2016-May-31 07:30N 29°46' E 122°00'0 0.1
2016-May-31 06:32N 29°46' E 122°00'0 0.0
2016-May-31 04:18N 29°46' E 122°00'0 0.0
2016-May-31 03:33N 29°46' E 122°00'0 0.1
2016-May-31 02:32N 29°46' E 122°00'0 0.0
2016-May-31 01:26N 29°46' E 122°00'0 0.0
2016-May-31 00:32N 29°46' E 122°00'0 0.0
2016-May-30 23:26N 29°46' E 122°00'6 6.5
2016-May-30 22:30N 29°49' E 122°07'10 9.8
2016-May-30 21:31N 29°46' E 122°17'1010.2
2016-May-30 20:32N 29°43' E 122°28'4 0.1
2016-May-29 15:19N 29°44' E 122°33'  
Track history (hours):
 
Tides and Currents Weather Stations Pressure Air Temp Water Temp Dewpoint Dewpoint Depression Visibility Wind Speed Wind Dir Waves Ship Positions

OOCL California

Last reported at 2016-Jun-08 12:29 UTC. Time now 2016-Jun-27 00:35 UTC.
Position N 01°59' E 102°14'.
Warning: this ship's position is 18 days out of date.

Length 276 m; beam 40 m; draft 14 m.

Type: Ship. MMSI: 477704000.

Date/timePositionNaut miles runAvg speedWind from/ knotsBaromVisibWave heightAir tempDewpointWater temp
2016-Jun-08 12:29N 01°59' E 102°14'1819.4
2016-Jun-08 11:33N 01°50' E 102°30'2020.4
2016-Jun-08 10:33N 01°41' E 102°48'6019.5
2016-Jun-08 07:28N 01°11' E 103°40'1313.9
2016-Jun-08 06:33N 01°13' E 103°52'3 2.6
2016-Jun-08 05:16N 01°16' E 103°51'0 0.0
2016-Jun-08 04:28N 01°16' E 103°51'0 0.0
2016-Jun-08 03:25N 01°16' E 103°51'0 0.0
2016-Jun-08 02:25N 01°16' E 103°51'0 0.0
2016-Jun-08 01:28N 01°16' E 103°51'0 0.0
2016-Jun-08 00:28N 01°16' E 103°51'0 0.0
2016-Jun-07 23:31N 01°16' E 103°51'0 0.0
2016-Jun-07 22:28N 01°16' E 103°51'0 0.0
2016-Jun-07 21:28N 01°16' E 103°51'0 0.0
2016-Jun-07 20:31N 01°16' E 103°51'0 0.0
2016-Jun-07 19:28N 01°16' E 103°51'0 0.0
2016-Jun-07 18:28N 01°16' E 103°51'1 0.8
2016-Jun-07 17:33N 01°15' E 103°51'5 5.3
2016-Jun-07 16:33N 01°15' E 103°46'2 1.7
2016-Jun-07 15:33N 01°17' E 103°46'0 0.0
2016-Jun-07 14:33N 01°17' E 103°46'0 0.0
2016-Jun-07 13:33N 01°17' E 103°46'0 0.0
2016-Jun-07 12:33N 01°17' E 103°46'0 0.1
2016-Jun-07 11:33N 01°17' E 103°46'0 0.1
2016-Jun-07 10:33N 01°17' E 103°46'0 0.0
2016-Jun-07 09:33N 01°17' E 103°46'0 0.0
2016-Jun-07 08:33N 01°17' E 103°46'0 0.0
2016-Jun-07 07:33N 01°17' E 103°46'0 0.0
2016-Jun-07 06:33N 01°17' E 103°46'0 0.0
2016-Jun-07 05:30N 01°17' E 103°46'0 0.1
2016-Jun-07 04:33N 01°17' E 103°46'0 0.1
2016-Jun-07 03:33N 01°17' E 103°46'0 0.0
2016-Jun-07 02:21N 01°17' E 103°46'0 0.0
2016-Jun-07 01:27N 01°17' E 103°46'0 0.0
2016-Jun-07 00:33N 01°17' E 103°46'0 0.0
2016-Jun-06 23:34N 01°17' E 103°46'1 0.8
2016-Jun-06 22:33N 01°16' E 103°45'9 8.6
2016-Jun-06 21:33N 01°14' E 103°54'8 8.4
2016-Jun-06 20:34N 01°16' E 104°02'1211.4
2016-Jun-06 19:33N 01°17' E 104°13'  
2016-Jun-03 18:33N 21°25' E 114°06'1918.7
2016-Jun-03 17:33N 21°42' E 114°14'2418.7
2016-Jun-03 16:16N 22°06' E 114°20'2212.7
2016-Jun-03 14:33N 22°22' E 114°04'1010.2
2016-Jun-03 13:33N 22°24' E 113°53'3 3.1
2016-Jun-03 12:33N 22°27' E 113°54'0 0.1
2016-Jun-03 11:04N 22°27' E 113°54'0 0.1
2016-Jun-03 10:28N 22°27' E 113°54'0 0.1
2016-Jun-03 09:28N 22°27' E 113°54'0 0.0
2016-Jun-03 05:28N 22°27' E 113°54'0 0.0
2016-Jun-03 04:22N 22°27' E 113°54'0 0.0
2016-Jun-03 03:28N 22°27' E 113°54'0 0.0
2016-Jun-03 02:28N 22°27' E 113°54'0 0.0
2016-Jun-03 01:10N 22°27' E 113°54'0 0.0
2016-Jun-03 00:22N 22°27' E 113°54'0 0.2
2016-Jun-02 23:33N 22°27' E 113°54'10 6.9
2016-Jun-02 22:07N 22°21' E 114°02'610.6
2016-Jun-02 21:33N 22°17' E 114°06'10 9.5
2016-Jun-02 20:33N 22°10' E 114°13'1212.0
2016-Jun-02 19:33N 22°08' E 114°26'30316.7
2016-Jun-02 01:29N 24°34' E 119°14'34919.2
2016-Jun-01 07:18N 29°38' E 122°28'1215.7
2016-Jun-01 06:32N 29°46' E 122°18'9 9.6
2016-Jun-01 05:34N 29°49' E 122°08'7 6.9
2016-Jun-01 04:31N 29°46' E 122°00'0 0.0
2016-Jun-01 00:29N 29°46' E 122°00'0 0.0
2016-May-31 23:26N 29°46' E 122°00'0 0.0
2016-May-31 21:20N 29°46' E 122°00'0 0.0
2016-May-31 20:06N 29°46' E 122°00'0 0.1
2016-May-31 19:30N 29°46' E 122°00'0 0.1
2016-May-31 18:33N 29°46' E 122°00'0 0.0
2016-May-31 17:32N 29°46' E 122°00'0 0.0
2016-May-31 16:27N 29°46' E 122°00'0 0.0
2016-May-31 15:33N 29°46' E 122°00'0 0.0
2016-May-31 14:33N 29°46' E 122°00'0 0.0
2016-May-31 13:32N 29°46' E 122°00'0 0.0
2016-May-31 12:33N 29°46' E 122°00'0 0.1
2016-May-31 11:32N 29°46' E 122°00'0 0.0
2016-May-31 10:32N 29°46' E 122°00'0 0.0
2016-May-31 09:33N 29°46' E 122°00'0 0.0
2016-May-31 08:33N 29°46' E 122°00'0 0.0
2016-May-31 07:30N 29°46' E 122°00'0 0.1
2016-May-31 06:32N 29°46' E 122°00'0 0.0
2016-May-31 04:18N 29°46' E 122°00'0 0.0
2016-May-31 03:33N 29°46' E 122°00'0 0.1
2016-May-31 02:32N 29°46' E 122°00'0 0.0
2016-May-31 01:26N 29°46' E 122°00'0 0.0
2016-May-31 00:32N 29°46' E 122°00'0 0.0
2016-May-30 23:26N 29°46' E 122°00'6 6.5
2016-May-30 22:30N 29°49' E 122°07'10 9.8
2016-May-30 21:31N 29°46' E 122°17'1010.2
2016-May-30 20:32N 29°43' E 122°28'4 0.1
2016-May-29 15:19N 29°44' E 122°33'  

Dump ship's entire track history